Hundvaag 1 weather for Feb 1999
Month no. 140
Obs.
Da.
Temp. Dew Point Precip. Wind
Speed
Wind gusts Cloud cover Press. Humidity Wind dir. Sunny OPT
01.02.1999 5,4   1,0     1       1  
02.02.1999 5,8   1,0     0          
03.02.1999 4,3   0,0     0          
04.02.1999 7,4   30,0     0       1  
05.02.1999 3,5   3,0     6       1  
06.02.1999 1,0   5,0     8       1  
07.02.1999 1,1   0,0     4       1  
08.02.1999 -4,7   0,0     10       1  
09.02.1999 -3,3   0,0     0       1  
10.02.1999 -4,1   0,0     10       1  
11.02.1999 -5,2   0,0     0          
12.02.1999 0,7   0,0     0       1  
13.02.1999 4,4   2,0     0          
14.02.1999 4,6   1,0     0          
15.02.1999 3,9   7,0     0          
16.02.1999 0,6   33,0     0       1  
17.02.1999 -2,6   0,0     0       1  
18.02.1999 -1,2   0,0     9       1  
19.02.1999 4,8   7,0     0       1  
20.02.1999 1,5   20,0     4       1  
21.02.1999 0,2   25,0     0          
22.02.1999 0,3   1,0     0          
23.02.1999 -2,5   0,0     10       1  
24.02.1999 -1,3   0,0     0       1  
25.02.1999 0,6   0,0     0          
26.02.1999 5,6   10,0     0       1  
27.02.1999 5,4   0,0     0          
28.02.1999 2,4   14,0     8       1  
                       
                       
                       
Avrg/Sum 1,4   160,0     2,5       18